createdAt,value
2018-09-13T00:00:27.318Z,17.30
2018-09-13T00:02:55.856Z,17.20
2018-09-13T00:05:24.258Z,17.20
2018-09-13T00:07:52.661Z,17.10
2018-09-13T00:10:21.089Z,17.10
2018-09-13T00:12:49.537Z,16.90
2018-09-13T00:15:18.006Z,16.90
2018-09-13T00:17:46.453Z,16.90
2018-09-13T00:20:14.896Z,16.90
2018-09-13T00:22:43.315Z,16.90
2018-09-13T00:25:11.877Z,16.90
2018-09-13T00:27:40.267Z,16.90
2018-09-13T00:30:08.696Z,16.90
2018-09-13T00:32:37.282Z,17.00
2018-09-13T00:35:05.779Z,17.00
2018-09-13T00:37:34.309Z,17.00
2018-09-13T00:40:02.841Z,16.90
2018-09-13T00:42:31.305Z,16.80
2018-09-13T00:44:59.790Z,16.70
2018-09-13T00:47:28.322Z,16.60
2018-09-13T00:49:56.782Z,16.50
2018-09-13T00:52:25.209Z,16.50
2018-09-13T00:54:53.655Z,16.50
2018-09-13T00:57:22.055Z,16.50
2018-09-13T00:59:50.515Z,16.40
2018-09-13T01:02:19.090Z,16.40
2018-09-13T01:04:47.624Z,16.40
2018-09-13T01:07:16.038Z,16.40
2018-09-13T01:09:44.617Z,16.50
2018-09-13T01:12:13.138Z,16.60
2018-09-13T01:14:41.727Z,16.60
2018-09-13T01:17:10.362Z,16.40
2018-09-13T01:19:38.865Z,16.40
2018-09-13T01:22:07.435Z,16.30
2018-09-13T01:24:35.834Z,16.30
2018-09-13T01:27:04.321Z,16.30
2018-09-13T01:29:32.829Z,16.30
2018-09-13T01:32:01.306Z,16.30
2018-09-13T01:34:29.728Z,16.40
2018-09-13T01:36:58.127Z,16.40
2018-09-13T01:39:26.613Z,16.40
2018-09-13T01:41:55.039Z,16.30
2018-09-13T01:44:23.599Z,16.30
2018-09-13T01:46:52.020Z,16.30
2018-09-13T01:49:20.572Z,16.30
2018-09-13T01:51:49.186Z,16.20
2018-09-13T01:54:17.682Z,16.20
2018-09-13T01:56:46.176Z,16.20
2018-09-13T01:59:14.609Z,16.20
2018-09-13T02:01:43.053Z,16.20
2018-09-13T02:04:11.496Z,16.30
2018-09-13T02:06:39.900Z,16.20
2018-09-13T02:09:09.948Z,16.10
2018-09-13T02:11:38.470Z,16.00
2018-09-13T02:14:07.054Z,15.90
2018-09-13T02:16:35.477Z,15.90
2018-09-13T02:19:03.944Z,15.80
2018-09-13T02:21:32.478Z,15.80
2018-09-13T02:24:01.000Z,15.70
2018-09-13T02:26:29.473Z,15.70
2018-09-13T02:28:57.954Z,15.70
2018-09-13T02:31:26.352Z,15.70
2018-09-13T02:33:54.857Z,15.70
2018-09-13T02:36:23.320Z,15.50
2018-09-13T02:38:52.156Z,15.40
2018-09-13T02:41:20.566Z,15.30
2018-09-13T02:43:49.196Z,15.30
2018-09-13T02:46:17.618Z,15.40
2018-09-13T02:48:46.341Z,15.50
2018-09-13T02:51:14.806Z,15.50
2018-09-13T02:53:43.266Z,15.40
2018-09-13T02:56:11.743Z,15.50
2018-09-13T02:58:40.259Z,15.50
2018-09-13T03:01:08.788Z,15.40
2018-09-13T03:03:37.244Z,15.40
2018-09-13T03:06:05.702Z,15.40
2018-09-13T03:08:34.193Z,15.30
2018-09-13T03:11:02.676Z,15.30
2018-09-13T03:13:31.120Z,15.30
2018-09-13T03:15:59.691Z,15.30
2018-09-13T03:18:28.261Z,15.30
2018-09-13T03:20:56.791Z,15.30
2018-09-13T03:23:25.386Z,15.30
2018-09-13T03:25:53.878Z,15.40
2018-09-13T03:28:22.400Z,15.40
2018-09-13T03:30:50.886Z,15.50
2018-09-13T03:33:19.378Z,15.50
2018-09-13T03:35:47.826Z,15.40
2018-09-13T03:40:50.886Z,15.50
2018-09-13T03:43:19.310Z,15.50
2018-09-13T03:45:47.842Z,15.50
2018-09-13T03:48:16.299Z,15.50
2018-09-13T03:50:44.776Z,15.60
2018-09-13T03:53:13.372Z,15.60
2018-09-13T03:55:41.799Z,15.60
2018-09-13T03:58:10.308Z,15.60
2018-09-13T04:00:38.882Z,15.60
2018-09-13T04:03:07.417Z,15.70
2018-09-13T04:05:35.888Z,15.70
2018-09-13T04:08:04.473Z,15.70
2018-09-13T04:10:33.011Z,15.70
2018-09-13T04:13:01.506Z,15.70
2018-09-13T04:15:30.119Z,15.80
2018-09-13T04:17:58.581Z,15.70
2018-09-13T04:20:27.061Z,15.60
2018-09-13T04:22:55.543Z,15.40
2018-09-13T04:25:24.086Z,15.20
2018-09-13T04:27:52.568Z,15.20
2018-09-13T04:30:21.046Z,15.30
2018-09-13T04:32:49.580Z,15.40
2018-09-13T04:35:18.069Z,15.40
2018-09-13T04:37:46.551Z,15.40
2018-09-13T04:40:15.167Z,15.40
2018-09-13T04:42:43.951Z,15.30
2018-09-13T04:45:12.646Z,15.30
2018-09-13T04:47:41.083Z,15.30
2018-09-13T04:50:09.472Z,15.30
2018-09-13T04:52:37.969Z,15.30
2018-09-13T04:55:06.486Z,15.30
2018-09-13T04:57:34.951Z,15.30
2018-09-13T05:00:03.461Z,15.30
2018-09-13T05:02:31.899Z,15.30
2018-09-13T05:05:00.375Z,15.30
2018-09-13T05:07:28.896Z,15.30
2018-09-13T05:09:57.416Z,15.40
2018-09-13T05:12:25.847Z,15.40
2018-09-13T05:14:54.336Z,15.50
2018-09-13T05:17:22.947Z,15.60
2018-09-13T05:19:51.397Z,15.80
2018-09-13T05:22:19.852Z,15.70
2018-09-13T05:24:48.336Z,15.80
2018-09-13T05:27:16.751Z,16.00
2018-09-13T05:29:45.634Z,16.30
2018-09-13T05:32:14.040Z,16.50
2018-09-13T05:34:42.565Z,16.70
2018-09-13T05:37:11.219Z,17.00
2018-09-13T05:39:40.311Z,17.20
2018-09-13T05:42:08.999Z,17.20
2018-09-13T05:44:37.536Z,17.60
2018-09-13T05:47:07.903Z,17.90
2018-09-13T05:49:36.553Z,18.40
2018-09-13T05:52:05.051Z,18.50
2018-09-13T05:54:33.653Z,18.60
2018-09-13T05:57:02.951Z,18.90
2018-09-13T05:59:31.487Z,19.20
2018-09-13T06:02:00.028Z,19.70
2018-09-13T06:04:28.679Z,20.10
2018-09-13T06:06:57.355Z,20.10
2018-09-13T06:09:27.584Z,20.80
2018-09-13T06:11:56.667Z,21.10
2018-09-13T06:14:25.246Z,21.30
2018-09-13T06:16:53.746Z,21.40
2018-09-13T06:19:22.226Z,21.60
2018-09-13T06:21:50.689Z,21.00
2018-09-13T06:24:19.157Z,20.90
2018-09-13T06:26:47.697Z,20.60
2018-09-13T06:29:16.243Z,20.50
2018-09-13T06:31:44.778Z,20.10
2018-09-13T06:34:13.299Z,19.90
2018-09-13T06:36:41.819Z,19.50
2018-09-13T06:39:11.252Z,19.50
2018-09-13T06:41:39.831Z,19.60
2018-09-13T06:44:09.256Z,19.40
2018-09-13T06:46:37.722Z,19.80
2018-09-13T06:49:06.465Z,20.00
2018-09-13T06:51:35.097Z,20.30
2018-09-13T06:54:03.799Z,20.50
2018-09-13T06:56:32.338Z,20.80
2018-09-13T06:59:00.791Z,21.90
2018-09-13T07:01:30.106Z,22.80
2018-09-13T07:03:58.545Z,23.80
2018-09-13T07:06:27.012Z,23.40
2018-09-13T07:08:55.524Z,23.20
2018-09-13T07:11:24.068Z,23.50
2018-09-13T07:13:52.835Z,24.40
2018-09-13T07:16:21.301Z,24.90
2018-09-13T07:18:49.763Z,25.40
2018-09-13T07:21:18.314Z,25.20
2018-09-13T07:23:46.964Z,25.80
2018-09-13T07:26:15.471Z,26.60
2018-09-13T07:28:43.904Z,27.90
2018-09-13T07:31:12.470Z,28.30
2018-09-13T07:33:41.054Z,29.40
2018-09-13T07:36:09.550Z,28.90
2018-09-13T07:38:38.519Z,28.30
2018-09-13T07:41:07.009Z,28.10
2018-09-13T07:43:35.500Z,27.80
2018-09-13T07:46:04.023Z,25.80
2018-09-13T07:48:32.724Z,25.80
2018-09-13T07:51:01.246Z,25.50
2018-09-13T07:53:29.739Z,25.60
2018-09-13T07:55:58.294Z,25.50
2018-09-13T07:58:26.812Z,25.10
2018-09-13T08:00:55.411Z,24.80
2018-09-13T08:03:23.932Z,24.40
2018-09-13T08:05:52.399Z,24.30
2018-09-13T08:08:21.290Z,24.10
2018-09-13T08:10:49.737Z,23.90
2018-09-13T08:13:18.443Z,23.50
2018-09-13T08:15:48.048Z,23.50
2018-09-13T08:18:16.617Z,23.50
2018-09-13T08:20:45.069Z,23.60
2018-09-13T08:23:13.471Z,23.60
2018-09-13T08:25:42.064Z,23.90
2018-09-13T08:28:10.542Z,23.90
2018-09-13T08:30:38.977Z,24.10
2018-09-13T08:33:07.495Z,23.90
2018-09-13T08:35:35.884Z,23.70
2018-09-13T08:38:04.347Z,23.60
2018-09-13T08:40:32.817Z,23.80
2018-09-13T08:43:01.342Z,23.90
2018-09-13T08:45:30.649Z,23.90
2018-09-13T08:48:00.255Z,23.90
2018-09-13T08:50:28.685Z,23.80
2018-09-13T08:52:57.192Z,23.70
2018-09-13T08:55:25.628Z,23.70
2018-09-13T08:57:54.162Z,23.60
2018-09-13T09:00:22.618Z,23.40
2018-09-13T09:02:51.039Z,23.40
2018-09-13T09:05:19.564Z,23.20
2018-09-13T09:07:48.058Z,23.20
2018-09-13T09:10:16.982Z,23.10
2018-09-13T09:12:45.403Z,22.60
2018-09-13T09:15:14.099Z,22.60
2018-09-13T09:17:42.534Z,22.50
2018-09-13T09:20:10.942Z,22.50
2018-09-13T09:22:39.726Z,22.50
2018-09-13T09:25:08.212Z,22.70
2018-09-13T09:27:36.784Z,22.80
2018-09-13T09:30:05.663Z,22.80
2018-09-13T09:32:34.310Z,22.70
2018-09-13T09:35:02.951Z,22.80
2018-09-13T09:37:31.382Z,22.80
2018-09-13T09:39:59.892Z,23.00
2018-09-13T09:42:28.509Z,23.10
2018-09-13T09:44:56.938Z,23.30
2018-09-13T09:47:25.472Z,23.20
2018-09-13T09:49:53.937Z,23.30
2018-09-13T09:52:22.479Z,23.40
2018-09-13T09:54:50.948Z,23.70
2018-09-13T09:57:19.384Z,24.10
2018-09-13T09:59:47.912Z,24.80
2018-09-13T10:02:19.160Z,24.80
2018-09-13T10:04:48.384Z,25.70
2018-09-13T10:07:16.855Z,26.30
2018-09-13T10:09:45.541Z,27.10
2018-09-13T10:12:14.607Z,27.90
2018-09-13T10:14:47.225Z,28.40
2018-09-13T10:17:20.956Z,28.50
2018-09-13T10:19:54.827Z,27.70
2018-09-13T10:22:28.648Z,28.20
2018-09-13T10:25:02.372Z,28.50
2018-09-13T10:27:36.269Z,28.40
2018-09-13T10:30:11.006Z,28.30
2018-09-13T10:32:45.065Z,28.60
2018-09-13T10:35:18.961Z,28.30
2018-09-13T10:37:52.860Z,27.90
2018-09-13T10:40:26.518Z,28.00
2018-09-13T10:43:00.527Z,27.70
2018-09-13T10:45:34.395Z,26.80
2018-09-13T10:48:09.510Z,26.90
2018-09-13T10:51:47.337Z,26.30
2018-09-13T10:54:52.799Z,26.50
2018-09-13T10:57:26.588Z,25.50
2018-09-13T10:59:55.074Z,25.50
2018-09-13T11:02:23.566Z,26.00
2018-09-13T11:04:52.078Z,26.10
2018-09-13T11:07:20.737Z,25.80
2018-09-13T11:09:49.303Z,25.40
2018-09-13T11:12:19.952Z,25.90
2018-09-13T11:14:53.846Z,26.50
2018-09-13T11:17:23.752Z,25.40
2018-09-13T11:19:52.491Z,25.40
2018-09-13T11:24:58.374Z,25.40
2018-09-13T11:27:28.453Z,25.70
2018-09-13T11:29:57.049Z,25.30
2018-09-13T11:32:25.642Z,25.50
2018-09-13T11:34:54.292Z,26.00
2018-09-13T11:37:22.891Z,26.70
2018-09-13T11:39:51.444Z,28.00
2018-09-13T11:42:20.091Z,29.20
2018-09-13T11:44:48.583Z,29.60
2018-09-13T11:47:17.208Z,29.60
2018-09-13T11:49:45.719Z,29.50
2018-09-13T11:52:14.216Z,29.80
2018-09-13T11:54:42.885Z,29.90
2018-09-13T11:57:11.408Z,28.70
2018-09-13T11:59:39.896Z,29.00
2018-09-13T12:02:08.507Z,29.80
2018-09-13T12:04:36.919Z,30.40
2018-09-13T12:07:05.449Z,31.00
2018-09-13T12:09:33.987Z,29.20
2018-09-13T12:12:02.415Z,29.00
2018-09-13T12:14:31.130Z,28.70
2018-09-13T12:16:59.767Z,28.30
2018-09-13T12:19:28.621Z,28.40
2018-09-13T12:21:57.152Z,28.40
2018-09-13T12:24:25.892Z,28.10
2018-09-13T12:26:54.403Z,28.10
2018-09-13T12:29:22.857Z,28.20
2018-09-13T12:31:51.407Z,27.70
2018-09-13T12:34:19.820Z,28.00
2018-09-13T12:36:48.373Z,28.10
2018-09-13T12:39:16.850Z,28.20
2018-09-13T12:41:45.435Z,28.00
2018-09-13T12:44:14.002Z,27.60
2018-09-13T12:46:42.599Z,27.60
2018-09-13T12:49:11.126Z,27.90
2018-09-13T12:51:39.624Z,28.10
2018-09-13T12:54:08.249Z,27.30
2018-09-13T12:56:36.763Z,26.90
2018-09-13T12:59:05.283Z,26.30
2018-09-13T13:01:33.798Z,26.40
2018-09-13T13:04:02.526Z,26.50
2018-09-13T13:06:31.088Z,26.70
2018-09-13T13:08:59.591Z,26.80
2018-09-13T13:11:28.073Z,26.70
2018-09-13T13:13:56.681Z,26.80
2018-09-13T13:16:25.309Z,26.50
2018-09-13T13:18:53.800Z,27.20
2018-09-13T13:21:22.225Z,28.00
2018-09-13T13:23:51.160Z,28.30
2018-09-13T13:26:19.625Z,27.90
2018-09-13T13:28:48.377Z,27.20
2018-09-13T13:31:16.891Z,26.00
2018-09-13T13:33:45.324Z,26.40
2018-09-13T13:36:13.828Z,26.70
2018-09-13T13:38:42.460Z,27.10
2018-09-13T13:41:11.168Z,27.00
2018-09-13T13:43:39.998Z,26.70
2018-09-13T13:46:08.530Z,26.70
2018-09-13T13:48:37.097Z,26.70
2018-09-13T13:51:05.658Z,26.80
2018-09-13T13:53:34.146Z,27.30
2018-09-13T13:56:02.654Z,27.40
2018-09-13T13:58:31.140Z,27.70
2018-09-13T14:00:59.620Z,27.70
2018-09-13T14:03:28.131Z,27.30
2018-09-13T14:05:56.574Z,27.40
2018-09-13T14:08:25.098Z,27.30
2018-09-13T14:10:53.548Z,27.30
2018-09-13T14:13:22.094Z,27.10
2018-09-13T14:15:50.737Z,26.90
2018-09-13T14:18:19.136Z,26.90
2018-09-13T14:20:47.756Z,26.90
2018-09-13T14:23:16.347Z,26.80
2018-09-13T14:25:44.824Z,26.80
2018-09-13T14:28:14.947Z,26.70
2018-09-13T14:30:43.522Z,26.50
2018-09-13T14:33:11.980Z,26.60
2018-09-13T14:35:40.668Z,26.50
2018-09-13T14:38:09.111Z,26.70
2018-09-13T14:40:37.661Z,26.60
2018-09-13T14:43:06.172Z,26.80
2018-09-13T14:45:34.648Z,26.70
2018-09-13T14:48:03.271Z,26.10
2018-09-13T14:50:31.833Z,26.10
2018-09-13T14:53:00.322Z,26.30
2018-09-13T14:55:28.845Z,26.30
2018-09-13T14:57:57.498Z,26.00
2018-09-13T15:00:26.709Z,25.90
2018-09-13T15:02:55.448Z,26.00
2018-09-13T15:05:24.325Z,26.00
2018-09-13T15:07:52.992Z,26.00
2018-09-13T15:10:21.465Z,26.00
2018-09-13T15:12:50.088Z,26.00
2018-09-13T15:15:18.654Z,26.10
2018-09-13T15:17:47.109Z,25.90
2018-09-13T15:20:15.579Z,25.90
2018-09-13T15:22:44.180Z,25.90
2018-09-13T15:25:12.733Z,25.70
2018-09-13T15:27:41.513Z,25.50
2018-09-13T15:30:10.066Z,25.40
2018-09-13T15:32:38.617Z,25.30
2018-09-13T15:35:07.503Z,25.20
2018-09-13T15:37:36.188Z,25.20
2018-09-13T15:40:04.754Z,25.10
2018-09-13T15:42:33.335Z,25.00
2018-09-13T15:45:01.930Z,24.90
2018-09-13T15:47:30.483Z,24.90
2018-09-13T15:49:59.254Z,24.90
2018-09-13T15:52:27.872Z,24.80
2018-09-13T15:54:56.369Z,24.70
2018-09-13T15:57:24.924Z,24.60
2018-09-13T15:59:53.489Z,24.50
2018-09-13T16:02:22.125Z,24.30
2018-09-13T16:04:50.716Z,24.20
2018-09-13T16:07:19.226Z,24.10
2018-09-13T16:09:47.719Z,24.00
2018-09-13T16:12:16.578Z,23.90
2018-09-13T16:14:44.989Z,23.80
2018-09-13T16:17:13.394Z,23.70
2018-09-13T16:19:41.967Z,23.80
2018-09-13T16:22:10.524Z,23.80
2018-09-13T16:24:39.079Z,23.70
2018-09-13T16:27:07.947Z,23.60
2018-09-13T16:29:36.597Z,23.50
2018-09-13T16:32:05.255Z,23.40
2018-09-13T16:34:34.087Z,23.40
2018-09-13T16:37:11.108Z,23.30
2018-09-13T16:39:45.101Z,23.20
2018-09-13T16:42:18.989Z,23.20
2018-09-13T16:44:51.111Z,23.10
2018-09-13T16:47:31.686Z,23.10
2018-09-13T16:50:02.009Z,22.90
2018-09-13T16:52:31.229Z,22.80
2018-09-13T16:54:59.781Z,22.70
2018-09-13T16:57:28.584Z,22.60
2018-09-13T16:59:57.267Z,22.40
2018-09-13T17:02:25.944Z,22.40
2018-09-13T17:04:54.661Z,22.30
2018-09-13T17:07:23.943Z,22.20
2018-09-13T17:09:52.402Z,22.10
2018-09-13T17:12:21.020Z,21.90
2018-09-13T17:14:50.564Z,21.80
2018-09-13T17:17:19.224Z,21.70
2018-09-13T17:19:47.751Z,21.70
2018-09-13T17:22:16.467Z,21.60
2018-09-13T17:24:45.273Z,21.60
2018-09-13T17:27:14.642Z,21.40
2018-09-13T17:29:43.264Z,21.30
2018-09-13T17:32:11.793Z,21.30
2018-09-13T17:34:40.321Z,21.30
2018-09-13T17:37:09.176Z,21.30
2018-09-13T17:39:37.777Z,21.30
2018-09-13T17:42:06.543Z,21.30
2018-09-13T17:44:35.240Z,21.20
2018-09-13T17:47:03.806Z,21.20
2018-09-13T17:49:32.488Z,21.10
2018-09-13T17:52:01.143Z,21.00
2018-09-13T17:54:29.833Z,21.00
2018-09-13T17:56:59.032Z,21.00
2018-09-13T17:59:28.837Z,20.90
2018-09-13T18:01:57.397Z,20.90
2018-09-13T18:04:26.079Z,20.80
2018-09-13T18:06:54.846Z,20.80
2018-09-13T18:09:23.914Z,20.80
2018-09-13T18:11:52.991Z,20.70
2018-09-13T18:14:21.863Z,20.70
2018-09-13T18:16:50.669Z,20.70
2018-09-13T18:19:19.334Z,20.60
2018-09-13T18:21:48.161Z,20.60
2018-09-13T18:24:16.827Z,20.50
2018-09-13T18:26:45.813Z,20.50
2018-09-13T18:29:14.378Z,20.40
2018-09-13T18:31:43.801Z,20.40
2018-09-13T18:34:12.487Z,20.40
2018-09-13T18:36:41.065Z,20.50
2018-09-13T18:39:10.877Z,20.40
2018-09-13T18:41:39.678Z,20.40
2018-09-13T18:44:08.382Z,20.40
2018-09-13T18:46:37.194Z,20.40
2018-09-13T18:49:06.200Z,20.40
2018-09-13T18:51:34.920Z,20.40
2018-09-13T18:54:03.644Z,20.30
2018-09-13T18:56:32.361Z,20.20
2018-09-13T18:59:01.177Z,20.10
2018-09-13T19:01:30.358Z,20.10
2018-09-13T19:03:58.982Z,20.10
2018-09-13T19:06:27.647Z,20.10
2018-09-13T19:08:56.257Z,20.10
2018-09-13T19:11:24.959Z,20.00
2018-09-13T19:13:53.450Z,20.00
2018-09-13T19:16:22.209Z,20.00
2018-09-13T19:18:50.881Z,20.00
2018-09-13T19:21:19.574Z,19.90
2018-09-13T19:23:48.300Z,19.90
2018-09-13T19:26:16.854Z,19.90
2018-09-13T19:28:45.416Z,19.90
2018-09-13T19:31:14.006Z,19.80
2018-09-13T19:33:42.528Z,19.90
2018-09-13T19:36:11.096Z,19.90
2018-09-13T19:38:39.766Z,19.80
2018-09-13T19:41:08.838Z,19.80
2018-09-13T19:43:37.733Z,19.90
2018-09-13T19:46:07.463Z,19.80
2018-09-13T19:48:36.180Z,19.80
2018-09-13T19:51:04.910Z,19.80
2018-09-13T19:53:33.497Z,19.80
2018-09-13T19:56:02.149Z,19.70
2018-09-13T19:58:30.720Z,19.70
2018-09-13T20:00:59.300Z,19.70
2018-09-13T20:03:27.818Z,19.60
2018-09-13T20:05:56.270Z,19.60
2018-09-13T20:08:24.854Z,19.60
2018-09-13T20:10:53.338Z,19.60
2018-09-13T20:13:21.863Z,19.50
2018-09-13T20:15:50.474Z,19.50
2018-09-13T20:18:19.511Z,19.50
2018-09-13T20:20:48.036Z,19.40
2018-09-13T20:23:16.646Z,19.40
2018-09-13T20:25:45.279Z,19.30
2018-09-13T20:28:13.850Z,19.30
2018-09-13T20:30:42.399Z,19.20
2018-09-13T20:33:10.911Z,19.20
2018-09-13T20:35:39.489Z,19.20
2018-09-13T20:38:08.088Z,19.10
2018-09-13T20:40:36.530Z,19.10
2018-09-13T20:43:06.734Z,19.10
2018-09-13T20:45:35.267Z,19.00
2018-09-13T20:48:03.728Z,18.90
2018-09-13T20:50:32.231Z,18.90
2018-09-13T20:53:00.703Z,18.80
2018-09-13T20:55:29.241Z,18.70
2018-09-13T20:57:57.737Z,18.70
2018-09-13T21:00:26.722Z,18.60
2018-09-13T21:02:55.240Z,18.60
2018-09-13T21:05:23.734Z,18.50
2018-09-13T21:07:53.273Z,18.40
2018-09-13T21:10:21.791Z,18.40
2018-09-13T21:12:51.148Z,18.40
2018-09-13T21:15:19.930Z,18.30
2018-09-13T21:17:48.441Z,18.30
2018-09-13T21:20:16.912Z,18.20
2018-09-13T21:22:45.457Z,18.20
2018-09-13T21:25:13.955Z,18.20
2018-09-13T21:27:42.478Z,18.20
2018-09-13T21:30:11.039Z,18.20
2018-09-13T21:32:39.639Z,18.20
2018-09-13T21:35:08.359Z,18.30
2018-09-13T21:37:36.856Z,18.30
2018-09-13T21:40:05.468Z,18.30
2018-09-13T21:42:34.053Z,18.20
2018-09-13T21:45:02.584Z,18.20
2018-09-13T21:47:31.090Z,18.20
2018-09-13T21:49:59.619Z,18.10
2018-09-13T21:52:28.288Z,18.00
2018-09-13T21:54:57.329Z,18.00
2018-09-13T21:57:25.880Z,18.00
2018-09-13T21:59:54.416Z,18.00
2018-09-13T22:02:23.430Z,18.00
2018-09-13T22:04:52.157Z,17.90
2018-09-13T22:07:20.661Z,17.80
2018-09-13T22:09:49.273Z,17.80
2018-09-13T22:12:17.779Z,17.80
2018-09-13T22:14:46.263Z,17.70
2018-09-13T22:17:14.742Z,17.60
2018-09-13T22:19:43.323Z,17.60
2018-09-13T22:22:11.965Z,17.50
2018-09-13T22:24:40.580Z,17.60
2018-09-13T22:27:09.150Z,17.60
2018-09-13T22:29:37.793Z,17.60
2018-09-13T22:32:06.547Z,17.60
2018-09-13T22:34:35.202Z,17.60
2018-09-13T22:37:03.785Z,17.60
2018-09-13T22:39:33.471Z,17.60
2018-09-13T22:42:01.943Z,17.50
2018-09-13T22:44:34.755Z,17.50
2018-09-13T22:47:03.431Z,17.50
2018-09-13T22:49:31.997Z,17.50
2018-09-13T22:52:00.560Z,17.50
2018-09-13T22:54:29.091Z,17.50
2018-09-13T22:56:57.608Z,17.60
2018-09-13T22:59:26.089Z,17.60
2018-09-13T23:01:54.639Z,17.60
2018-09-13T23:04:24.143Z,17.60
2018-09-13T23:06:52.801Z,17.60
2018-09-13T23:09:21.276Z,17.60
2018-09-13T23:11:49.814Z,17.60
2018-09-13T23:14:18.201Z,17.60
2018-09-13T23:16:49.579Z,17.50
2018-09-13T23:19:15.228Z,17.60
2018-09-13T23:21:43.880Z,17.50
2018-09-13T23:24:12.385Z,17.60
2018-09-13T23:26:41.069Z,17.60
2018-09-13T23:29:10.641Z,17.60
2018-09-13T23:31:39.070Z,17.60
2018-09-13T23:34:07.566Z,17.70
2018-09-13T23:36:36.032Z,17.70
2018-09-13T23:39:06.819Z,17.70
2018-09-13T23:41:35.307Z,17.70
2018-09-13T23:44:03.805Z,17.70
2018-09-13T23:46:32.281Z,17.70
2018-09-13T23:49:00.738Z,17.70
2018-09-13T23:51:29.179Z,17.80
2018-09-13T23:53:57.595Z,17.70
2018-09-13T23:56:26.015Z,17.70
2018-09-13T23:58:54.803Z,17.70
